Four Smile — IBPQ — position and weather

sailwx.info

Track history (hours):
 
Tides and Currents Weather Stations Pressure Air Temp Water Temp Dewpoint Dewpoint Depression Visibility Wind Speed Wind Dir Waves Ship Positions

Four Smile

Last reported at 2018-Jun-20 07:51 UTC. Time now 2018-Jun-20 19:03 UTC.
Position N 45°03' E 036°33'.

Length 274 m; draft 15.8 m.

Type: Ship. MMSI: 247271800.

Date/timePositionNaut miles runAvg speedWind from/ knotsBaromVisibWave heightAir tempDewpointWater temp
2018-Jun-20 07:51N 45°03' E 036°33'1 4.1
2018-Jun-20 07:30N 45°04' E 036°33'1 0.0
2018-Jun-18 09:52N 45°06' E 036°33'0 0.2
2018-Jun-18 06:58N 45°05' E 036°33'1 2.5
2018-Jun-18 06:31N 45°05' E 036°31'3 0.1
2018-Jun-16 19:21N 45°02' E 036°32'1 2.1
2018-Jun-16 18:57N 45°01' E 036°32'3 6.1
2018-Jun-16 18:30N 44°58' E 036°32'611.6
2018-Jun-16 18:00N 44°53' E 036°32'5712.1
2018-Jun-16 13:17N 44°12' E 035°35'512.5
2018-Jun-16 12:54N 44°10' E 035°29'14613.1
2018-Jun-16 01:44N 42°53' E 032°39'413.3
2018-Jun-16 01:26N 42°50' E 032°34'613.3
2018-Jun-16 01:00N 42°47' E 032°28'713.2
2018-Jun-16 00:30N 42°43' E 032°21'713.3
2018-Jun-16 00:00N 42°40' E 032°13'713.5
2018-Jun-15 23:30N 42°36' E 032°05'713.4
2018-Jun-15 23:00N 42°33' E 031°57'713.3
2018-Jun-15 22:30N 42°29' E 031°50'713.0
2018-Jun-15 22:00N 42°26' E 031°42'713.5
2018-Jun-15 21:30N 42°22' E 031°34'713.5
2018-Jun-15 21:00N 42°19' E 031°27'713.5
2018-Jun-15 20:30N 42°15' E 031°19'713.4
2018-Jun-15 20:00N 42°12' E 031°11'713.3
2018-Jun-15 19:30N 42°08' E 031°03'612.9
2018-Jun-15 19:00N 42°05' E 030°56'713.1
2018-Jun-15 18:31N 42°01' E 030°49'713.1
2018-Jun-15 18:01N 41°58' E 030°41'612.9
2018-Jun-15 17:30N 41°54' E 030°34'612.8
2018-Jun-15 17:00N 41°51' E 030°27'612.8
2018-Jun-15 16:31N 41°47' E 030°20'712.9
2018-Jun-15 15:59N 41°44' E 030°12'613.0
2018-Jun-15 15:30N 41°41' E 030°05'713.2
2018-Jun-15 15:00N 41°37' E 029°57'713.2
2018-Jun-15 14:30N 41°34' E 029°50'713.1
2018-Jun-15 14:00N 41°30' E 029°42'713.2
2018-Jun-15 13:30N 41°26' E 029°35'713.0
2018-Jun-15 13:00N 41°23' E 029°27'612.9
2018-Jun-15 12:30N 41°20' E 029°20'613.0
2018-Jun-15 12:01N 41°16' E 029°13'611.9
2018-Jun-15 11:30N 41°12' E 029°07'27 2.3
2018-Jun-15 00:02N 40°48' E 028°52'0 1.7
2018-Jun-15 00:00N 40°48' E 028°52'1010.2
2018-Jun-14 23:01N 40°49' E 028°39'012.6
2018-Jun-14 23:00N 40°50' E 028°38'612.2
2018-Jun-14 22:31N 40°49' E 028°30'612.0
2018-Jun-14 22:00N 40°48' E 028°23'611.9
2018-Jun-14 21:31N 40°47' E 028°15'611.9
2018-Jun-14 21:00N 40°47' E 028°07'611.6
2018-Jun-14 20:31N 40°46' E 027°60'611.4
2018-Jun-14 20:01N 40°45' E 027°52'611.6
2018-Jun-14 19:29N 40°44' E 027°44'918.4
2018-Jun-14 19:00N 40°42' E 027°33'7510.5
2018-Jun-14 11:54N 40°01' E 026°11'4 9.6
2018-Jun-14 11:29N 39°60' E 026°05'5 9.8
2018-Jun-14 11:00N 39°58' E 025°60'5 9.8
2018-Jun-14 10:30N 39°54' E 025°56'5 8.8
2018-Jun-14 10:00N 39°50' E 025°52'510.6
2018-Jun-14 09:30N 39°46' E 025°55'4 8.7
2018-Jun-14 09:00N 39°42' E 025°58'1 1.7
2018-Jun-14 08:17N 39°40' E 025°58'0 0.5
2018-Jun-14 07:50N 39°41' E 025°58'1 0.4
2018-Jun-14 04:41N 39°42' E 025°58'0 0.3
2018-Jun-14 04:29N 39°42' E 025°58'1 0.3
2018-Jun-14 01:17N 39°41' E 025°59'2 4.8
2018-Jun-14 00:58N 39°40' E 025°58'2 0.4
2018-Jun-13 20:41N 39°42' E 025°58'0 0.6
2018-Jun-13 20:26N 39°42' E 025°58'2 1.3
2018-Jun-13 18:40N 39°43' E 025°55'1 7.1
2018-Jun-13 18:28N 39°42' E 025°54'11611.1
2018-Jun-13 08:04N 37°47' E 025°46'113.7
2018-Jun-13 08:00N 37°46' E 025°47'713.6
2018-Jun-13 07:27N 37°39' E 025°50'613.9
2018-Jun-13 07:00N 37°33' E 025°52'713.9
2018-Jun-13 06:30N 37°27' E 025°55'  
Track history (hours):
 
Tides and Currents Weather Stations Pressure Air Temp Water Temp Dewpoint Dewpoint Depression Visibility Wind Speed Wind Dir Waves Ship Positions

Four Smile

Last reported at 2018-Jun-20 07:51 UTC. Time now 2018-Jun-20 19:03 UTC.
Position N 45°03' E 036°33'.

Length 274 m; draft 15.8 m.

Type: Ship. MMSI: 247271800.

Date/timePositionNaut miles runAvg speedWind from/ knotsBaromVisibWave heightAir tempDewpointWater temp
2018-Jun-20 07:51N 45°03' E 036°33'1 4.1
2018-Jun-20 07:30N 45°04' E 036°33'1 0.0
2018-Jun-18 09:52N 45°06' E 036°33'0 0.2
2018-Jun-18 06:58N 45°05' E 036°33'1 2.5
2018-Jun-18 06:31N 45°05' E 036°31'3 0.1
2018-Jun-16 19:21N 45°02' E 036°32'1 2.1
2018-Jun-16 18:57N 45°01' E 036°32'3 6.1
2018-Jun-16 18:30N 44°58' E 036°32'611.6
2018-Jun-16 18:00N 44°53' E 036°32'5712.1
2018-Jun-16 13:17N 44°12' E 035°35'512.5
2018-Jun-16 12:54N 44°10' E 035°29'14613.1
2018-Jun-16 01:44N 42°53' E 032°39'413.3
2018-Jun-16 01:26N 42°50' E 032°34'613.3
2018-Jun-16 01:00N 42°47' E 032°28'713.2
2018-Jun-16 00:30N 42°43' E 032°21'713.3
2018-Jun-16 00:00N 42°40' E 032°13'713.5
2018-Jun-15 23:30N 42°36' E 032°05'713.4
2018-Jun-15 23:00N 42°33' E 031°57'713.3
2018-Jun-15 22:30N 42°29' E 031°50'713.0
2018-Jun-15 22:00N 42°26' E 031°42'713.5
2018-Jun-15 21:30N 42°22' E 031°34'713.5
2018-Jun-15 21:00N 42°19' E 031°27'713.5
2018-Jun-15 20:30N 42°15' E 031°19'713.4
2018-Jun-15 20:00N 42°12' E 031°11'713.3
2018-Jun-15 19:30N 42°08' E 031°03'612.9
2018-Jun-15 19:00N 42°05' E 030°56'713.1
2018-Jun-15 18:31N 42°01' E 030°49'713.1
2018-Jun-15 18:01N 41°58' E 030°41'612.9
2018-Jun-15 17:30N 41°54' E 030°34'612.8
2018-Jun-15 17:00N 41°51' E 030°27'612.8
2018-Jun-15 16:31N 41°47' E 030°20'712.9
2018-Jun-15 15:59N 41°44' E 030°12'613.0
2018-Jun-15 15:30N 41°41' E 030°05'713.2
2018-Jun-15 15:00N 41°37' E 029°57'713.2
2018-Jun-15 14:30N 41°34' E 029°50'713.1
2018-Jun-15 14:00N 41°30' E 029°42'713.2
2018-Jun-15 13:30N 41°26' E 029°35'713.0
2018-Jun-15 13:00N 41°23' E 029°27'612.9
2018-Jun-15 12:30N 41°20' E 029°20'613.0
2018-Jun-15 12:01N 41°16' E 029°13'611.9
2018-Jun-15 11:30N 41°12' E 029°07'27 2.3
2018-Jun-15 00:02N 40°48' E 028°52'0 1.7
2018-Jun-15 00:00N 40°48' E 028°52'1010.2
2018-Jun-14 23:01N 40°49' E 028°39'012.6
2018-Jun-14 23:00N 40°50' E 028°38'612.2
2018-Jun-14 22:31N 40°49' E 028°30'612.0
2018-Jun-14 22:00N 40°48' E 028°23'611.9
2018-Jun-14 21:31N 40°47' E 028°15'611.9
2018-Jun-14 21:00N 40°47' E 028°07'611.6
2018-Jun-14 20:31N 40°46' E 027°60'611.4
2018-Jun-14 20:01N 40°45' E 027°52'611.6
2018-Jun-14 19:29N 40°44' E 027°44'918.4
2018-Jun-14 19:00N 40°42' E 027°33'7510.5
2018-Jun-14 11:54N 40°01' E 026°11'4 9.6
2018-Jun-14 11:29N 39°60' E 026°05'5 9.8
2018-Jun-14 11:00N 39°58' E 025°60'5 9.8
2018-Jun-14 10:30N 39°54' E 025°56'5 8.8
2018-Jun-14 10:00N 39°50' E 025°52'510.6
2018-Jun-14 09:30N 39°46' E 025°55'4 8.7
2018-Jun-14 09:00N 39°42' E 025°58'1 1.7
2018-Jun-14 08:17N 39°40' E 025°58'0 0.5
2018-Jun-14 07:50N 39°41' E 025°58'1 0.4
2018-Jun-14 04:41N 39°42' E 025°58'0 0.3
2018-Jun-14 04:29N 39°42' E 025°58'1 0.3
2018-Jun-14 01:17N 39°41' E 025°59'2 4.8
2018-Jun-14 00:58N 39°40' E 025°58'2 0.4
2018-Jun-13 20:41N 39°42' E 025°58'0 0.6
2018-Jun-13 20:26N 39°42' E 025°58'2 1.3
2018-Jun-13 18:40N 39°43' E 025°55'1 7.1
2018-Jun-13 18:28N 39°42' E 025°54'11611.1
2018-Jun-13 08:04N 37°47' E 025°46'113.7
2018-Jun-13 08:00N 37°46' E 025°47'713.6
2018-Jun-13 07:27N 37°39' E 025°50'613.9
2018-Jun-13 07:00N 37°33' E 025°52'713.9
2018-Jun-13 06:30N 37°27' E 025°55'  

Dump ship's entire track history